createdAt,value
2019-04-07T00:00:43.144Z,32.93
2019-04-07T00:05:47.428Z,33.02
2019-04-07T00:10:51.685Z,33.50
2019-04-07T00:15:55.703Z,31.87
2019-04-07T00:21:00.187Z,30.27
2019-04-07T00:26:04.164Z,28.32
2019-04-07T00:31:08.434Z,24.40
2019-04-07T00:36:12.236Z,25.60
2019-04-07T00:41:15.913Z,23.10
2019-04-07T00:46:20.051Z,26.60
2019-04-07T00:51:23.931Z,29.95
2019-04-07T00:56:28.470Z,31.55
2019-04-07T01:01:32.336Z,29.12
2019-04-07T01:06:36.047Z,33.83
2019-04-07T01:11:39.783Z,27.27
2019-04-07T01:16:43.992Z,33.80
2019-04-07T01:21:48.465Z,31.57
2019-04-07T01:26:52.541Z,35.05
2019-04-07T01:31:56.373Z,32.20
2019-04-07T01:37:00.061Z,33.80
2019-04-07T01:42:05.822Z,32.78
2019-04-07T01:47:12.340Z,32.25
2019-04-07T01:52:18.215Z,32.67
2019-04-07T01:57:40.121Z,32.80
2019-04-07T02:02:45.573Z,32.93
2019-04-07T02:07:53.937Z,32.30
2019-04-07T02:18:32.045Z,30.32
2019-04-07T02:23:53.607Z,27.50
2019-04-07T02:29:02.673Z,29.95
2019-04-07T02:34:11.818Z,26.42
2019-04-07T02:39:34.660Z,25.48
2019-04-07T02:45:01.388Z,28.90
2019-04-07T02:50:27.931Z,25.97
2019-04-07T02:55:33.536Z,27.42
2019-04-07T03:00:57.715Z,27.37
2019-04-07T03:06:09.988Z,29.48
2019-04-07T03:11:27.655Z,27.32
2019-04-07T03:16:36.066Z,23.15
2019-04-07T03:27:03.864Z,29.18
2019-04-07T03:32:27.579Z,28.90
2019-04-07T03:37:44.632Z,27.52
2019-04-07T03:42:48.625Z,28.75
2019-04-07T03:48:00.757Z,28.62
2019-04-07T03:53:06.213Z,30.37
2019-04-07T03:58:12.198Z,29.48
2019-04-07T04:03:17.848Z,25.08
2019-04-07T04:08:24.482Z,28.45
2019-04-07T04:13:36.007Z,26.80
2019-04-07T04:18:40.557Z,27.32
2019-04-07T04:23:45.693Z,31.10
2019-04-07T04:28:49.386Z,27.48
2019-04-07T04:33:54.260Z,29.87
2019-04-07T04:38:59.215Z,35.10
2019-04-07T04:44:04.192Z,29.52
2019-04-07T04:49:08.038Z,32.08
2019-04-07T04:54:12.590Z,30.52
2019-04-07T04:59:16.434Z,24.20
2019-04-07T05:04:20.733Z,23.65
2019-04-07T05:09:24.795Z,21.68
2019-04-07T05:14:29.426Z,28.42
2019-04-07T05:19:33.426Z,29.98
2019-04-07T05:24:38.109Z,25.60
2019-04-07T05:29:41.853Z,22.98
2019-04-07T05:34:45.615Z,21.37
2019-04-07T05:39:49.366Z,21.12
2019-04-07T05:44:53.625Z,15.68
2019-04-07T05:49:58.756Z,13.80
2019-04-07T05:55:02.752Z,14.58
2019-04-07T06:00:16.296Z,11.85
2019-04-07T06:05:19.723Z,13.15
2019-04-07T06:10:27.644Z,16.60
2019-04-07T06:15:29.111Z,18.12
2019-04-07T06:20:33.353Z,14.60
2019-04-07T06:25:41.155Z,15.60
2019-04-07T06:30:42.888Z,13.75
2019-04-07T06:35:47.645Z,13.95
2019-04-07T06:40:56.518Z,15.15
2019-04-07T06:46:14.133Z,15.58
2019-04-07T06:51:19.618Z,16.30
2019-04-07T06:56:32.227Z,15.40
2019-04-07T07:01:35.304Z,15.25
2019-04-07T07:06:48.254Z,12.85
2019-04-07T07:11:56.288Z,13.93
2019-04-07T07:17:10.843Z,15.45
2019-04-07T07:22:19.148Z,14.95
2019-04-07T07:27:23.011Z,12.45
2019-04-07T07:32:26.882Z,11.22
2019-04-07T07:37:31.114Z,12.93
2019-04-07T07:42:35.600Z,14.30
2019-04-07T07:47:39.443Z,8.50
2019-04-07T07:52:43.297Z,9.13
2019-04-07T07:57:47.146Z,13.38
2019-04-07T08:02:52.580Z,14.20
2019-04-07T08:07:56.340Z,17.67
2019-04-07T08:13:02.575Z,19.50
2019-04-07T08:18:07.660Z,16.52
2019-04-07T08:23:12.172Z,33.73
2019-04-07T08:28:18.815Z,13.30
2019-04-07T08:33:21.288Z,12.05
2019-04-07T08:38:27.122Z,13.22
2019-04-07T08:43:30.743Z,13.58
2019-04-07T08:48:34.533Z,12.10
2019-04-07T08:53:38.857Z,16.42
2019-04-07T08:58:44.357Z,11.65
2019-04-07T09:03:48.674Z,15.90
2019-04-07T09:08:53.160Z,15.13
2019-04-07T09:13:57.022Z,17.07
2019-04-07T09:19:11.006Z,18.40
2019-04-07T09:24:32.388Z,15.23
2019-04-07T09:29:58.259Z,14.00
2019-04-07T09:35:22.771Z,13.18
2019-04-07T09:40:46.211Z,14.98
2019-04-07T09:45:58.487Z,15.23
2019-04-07T09:51:16.531Z,12.75
2019-04-07T09:56:32.880Z,10.80
2019-04-07T10:01:37.844Z,10.08
2019-04-07T10:06:55.449Z,10.28
2019-04-07T10:12:06.694Z,12.37
2019-04-07T10:17:18.175Z,11.10
2019-04-07T10:22:29.843Z,10.28
2019-04-07T10:27:42.915Z,11.05
2019-04-07T10:33:00.265Z,11.93
2019-04-07T10:38:08.739Z,8.43
2019-04-07T10:43:30.395Z,7.80
2019-04-07T10:48:36.683Z,14.18
2019-04-07T10:53:44.990Z,9.25
2019-04-07T10:58:52.912Z,8.88
2019-04-07T11:03:58.159Z,7.42
2019-04-07T11:09:09.635Z,6.67
2019-04-07T11:14:31.178Z,7.70
2019-04-07T11:19:37.704Z,8.88
2019-04-07T11:24:46.951Z,7.45
2019-04-07T11:29:52.839Z,13.58
2019-04-07T11:34:58.486Z,13.43
2019-04-07T11:40:04.683Z,9.83
2019-04-07T11:45:25.639Z,10.13
2019-04-07T11:50:34.346Z,8.50
2019-04-07T11:55:46.479Z,13.00
2019-04-07T12:01:12.969Z,10.78
2019-04-07T12:06:26.869Z,8.78
2019-04-07T12:11:41.867Z,13.53
2019-04-07T12:16:58.373Z,12.35
2019-04-07T12:22:08.745Z,15.95
2019-04-07T12:27:17.246Z,12.90
2019-04-07T12:32:26.138Z,10.93
2019-04-07T12:37:47.726Z,16.32
2019-04-07T12:42:59.732Z,12.60
2019-04-07T12:48:05.860Z,10.50
2019-04-07T12:53:17.479Z,9.63
2019-04-07T12:58:35.563Z,12.75
2019-04-07T13:03:40.869Z,10.68
2019-04-07T13:09:02.307Z,13.00
2019-04-07T13:14:25.422Z,12.47
2019-04-07T13:19:46.711Z,9.98
2019-04-07T13:24:50.911Z,12.60
2019-04-07T13:29:56.456Z,10.63
2019-04-07T13:35:17.945Z,11.95
2019-04-07T13:40:24.103Z,15.32
2019-04-07T13:45:30.135Z,16.10
2019-04-07T13:50:52.535Z,17.00
2019-04-07T13:56:07.219Z,12.47
2019-04-07T14:01:12.800Z,13.60
2019-04-07T14:06:22.200Z,16.73
2019-04-07T14:11:58.223Z,15.32
2019-04-07T14:16:59.902Z,13.78
2019-04-07T14:22:08.852Z,14.35
2019-04-07T14:27:17.060Z,13.62
2019-04-07T14:32:38.464Z,12.45
2019-04-07T14:37:52.747Z,11.85
2019-04-07T14:43:13.646Z,13.22
2019-04-07T14:48:31.014Z,14.53
2019-04-07T14:53:42.073Z,14.28
2019-04-07T14:58:51.268Z,16.80
2019-04-07T15:03:53.077Z,10.80
2019-04-07T15:09:01.843Z,14.15
2019-04-07T15:14:04.220Z,16.93
2019-04-07T15:19:08.405Z,15.72
2019-04-07T15:24:12.250Z,14.98
2019-04-07T15:29:15.894Z,16.65
2019-04-07T15:34:19.855Z,16.05
2019-04-07T15:39:25.712Z,16.07
2019-04-07T15:44:29.110Z,17.55
2019-04-07T15:49:34.386Z,17.95
2019-04-07T15:54:38.060Z,16.30
2019-04-07T15:59:42.524Z,18.35
2019-04-07T16:04:46.893Z,15.75
2019-04-07T16:09:56.320Z,18.73
2019-04-07T16:14:56.403Z,18.77
2019-04-07T16:20:00.564Z,17.67
2019-04-07T16:25:08.038Z,21.62
2019-04-07T16:30:13.763Z,24.25
2019-04-07T16:35:18.212Z,21.27
2019-04-07T16:40:21.964Z,22.13
2019-04-07T16:45:25.559Z,23.62
2019-04-07T16:50:29.514Z,22.30
2019-04-07T16:55:37.190Z,21.48
2019-04-07T17:00:41.783Z,19.95
2019-04-07T17:05:46.284Z,22.80
2019-04-07T17:10:50.670Z,26.50
2019-04-07T17:15:55.261Z,25.02
2019-04-07T17:20:59.311Z,27.30
2019-04-07T17:26:05.677Z,24.92
2019-04-07T17:31:08.979Z,29.30
2019-04-07T17:36:16.590Z,34.95
2019-04-07T17:41:18.422Z,34.05
2019-04-07T17:46:27.337Z,37.17
2019-04-07T17:51:40.278Z,29.40
2019-04-07T17:56:48.155Z,35.92
2019-04-07T18:01:55.454Z,37.90
2019-04-07T18:07:06.656Z,40.83
2019-04-07T18:12:14.350Z,44.55
2019-04-07T18:17:30.777Z,48.05
2019-04-07T18:22:42.273Z,55.10
2019-04-07T18:28:03.846Z,44.42
2019-04-07T18:33:18.222Z,38.35
2019-04-07T18:38:21.785Z,38.58
2019-04-07T18:43:30.060Z,35.30
2019-04-07T18:48:50.197Z,40.20
2019-04-07T18:54:09.540Z,45.45
2019-04-07T18:59:17.090Z,37.40
2019-04-07T19:04:35.466Z,26.75
2019-04-07T19:10:03.721Z,27.42
2019-04-07T19:15:10.539Z,25.90
2019-04-07T19:20:27.556Z,30.08
2019-04-07T19:25:35.660Z,32.08
2019-04-07T19:30:46.354Z,33.98
2019-04-07T19:36:10.286Z,32.48
2019-04-07T19:41:19.983Z,36.05
2019-04-07T19:46:31.546Z,40.17
2019-04-07T19:51:50.545Z,45.75
2019-04-07T19:57:11.834Z,61.73
2019-04-07T20:02:32.679Z,64.90
2019-04-07T20:07:52.626Z,66.25
2019-04-07T20:12:58.355Z,70.22
2019-04-07T20:18:07.171Z,73.65
2019-04-07T20:23:18.347Z,70.67
2019-04-07T20:28:30.284Z,71.12
2019-04-07T20:33:38.409Z,68.62
2019-04-07T20:38:46.473Z,67.08
2019-04-07T20:44:08.310Z,71.53
2019-04-07T20:49:23.083Z,76.22
2019-04-07T20:54:34.077Z,80.17
2019-04-07T20:59:50.403Z,75.72
2019-04-07T21:04:53.066Z,74.50
2019-04-07T21:10:06.535Z,60.15
2019-04-07T21:15:24.538Z,53.78
2019-04-07T21:20:26.623Z,56.92
2019-04-07T21:25:37.654Z,52.50
2019-04-07T21:30:46.253Z,50.75
2019-04-07T21:36:10.414Z,49.15
2019-04-07T21:41:32.769Z,45.05
2019-04-07T21:46:54.154Z,46.85
2019-04-07T21:51:56.857Z,44.05
2019-04-07T21:57:04.701Z,47.25
2019-04-07T22:02:12.156Z,43.67
2019-04-07T22:07:33.665Z,44.08
2019-04-07T22:12:38.023Z,46.08
2019-04-07T22:17:41.819Z,44.98
2019-04-07T22:22:45.609Z,52.98
2019-04-07T22:27:49.299Z,54.18
2019-04-07T22:32:54.027Z,50.35
2019-04-07T22:37:58.854Z,57.83
2019-04-07T22:43:03.481Z,54.05
2019-04-07T22:48:08.345Z,53.38
2019-04-07T22:53:12.278Z,57.33
2019-04-07T22:58:16.009Z,59.73
2019-04-07T23:03:19.779Z,54.18
2019-04-07T23:08:24.288Z,51.80
2019-04-07T23:13:28.202Z,63.13
2019-04-07T23:18:31.817Z,60.28
2019-04-07T23:23:35.386Z,61.83
2019-04-07T23:28:39.081Z,56.25
2019-04-07T23:33:43.819Z,60.58
2019-04-07T23:38:47.552Z,56.85
2019-04-07T23:43:51.228Z,60.95
2019-04-07T23:48:54.818Z,53.15
2019-04-07T23:54:10.894Z,54.60
2019-04-07T23:59:15.039Z,54.80
